Time;durP1;ratioP1;P1;durP2;ratioP2;P2;SDS_P1;SDS_P2;PMS_P1;PMS_P2;Temp;Humidity;BMP_temperature;BMP_pressure;BME280_temperature;BME280_humidity;BME280_pressure;Samples;Min_cycle;Max_cycle;Signal;HPM_P1;HPM_P2
2020/12/29 00:01:32;;;;;;;1.40;1.33;;;;;;;2.13;83.10;93384.44;5109781;28;20231;-65
2020/12/29 00:03:59;;;;;;;1.50;1.40;;;;;;;2.13;83.31;93389.63;5111204;28;20212;-64
2020/12/29 00:06:25;;;;;;;2.27;1.60;;;;;;;2.20;83.60;93384.97;5111709;28;20192;-65
2020/12/29 00:08:51;;;;;;;1.60;1.50;;;;;;;2.20;83.18;93384.97;5111285;28;20164;-64
2020/12/29 00:11:16;;;;;;;1.20;1.20;;;;;;;2.18;84.42;93381.88;5111774;28;20183;-65
2020/12/29 00:13:42;;;;;;;1.40;1.30;;;;;;;2.22;83.92;93382.91;5111638;28;20196;-64
2020/12/29 00:16:07;;;;;;;1.47;1.23;;;;;;;2.25;83.80;93379.03;5110825;28;20199;-64
2020/12/29 00:18:35;;;;;;;1.43;1.10;;;;;;;2.20;84.98;93374.63;5111893;28;20255;-65
2020/12/29 00:21:01;;;;;;;1.30;1.10;;;;;;;2.27;85.10;93371.81;5110375;28;20168;-65
2020/12/29 00:23:27;;;;;;;0.90;0.90;;;;;;;2.27;84.81;93359.66;5111619;28;20365;-64
2020/12/29 00:25:54;;;;;;;0.80;0.80;;;;;;;2.27;84.52;93371.81;5111073;28;20217;-66
2020/12/29 00:28:20;;;;;;;0.80;0.80;;;;;;;2.20;86.01;93372.06;5111836;28;20739;-64
2020/12/29 00:30:46;;;;;;;0.87;0.87;;;;;;;2.23;85.95;93365.63;5110160;28;20179;-65
2020/12/29 00:33:12;;;;;;;1.03;0.97;;;;;;;2.18;86.02;93368.94;5111264;28;20223;-65
2020/12/29 00:35:38;;;;;;;1.03;0.90;;;;;;;2.12;85.78;93369.97;5093171;28;20207;-66
2020/12/29 00:38:03;;;;;;;0.80;0.80;;;;;;;2.09;86.60;93376.44;5111033;28;20213;-66
2020/12/29 00:40:29;;;;;;;0.70;0.70;;;;;;;2.08;86.74;93380.06;5111964;28;20211;-65
2020/12/29 00:42:56;;;;;;;0.80;0.80;;;;;;;2.08;87.81;93380.06;5110975;28;20290;-66
2020/12/29 00:45:21;;;;;;;0.80;0.80;;;;;;;2.12;86.83;93385.47;5111992;28;20167;-65
2020/12/29 00:47:49;;;;;;;0.80;0.80;;;;;;;2.12;87.03;93385.47;5111513;28;20529;-66
2020/12/29 00:50:14;;;;;;;0.70;0.70;;;;;;;2.14;87.44;93383.41;5111571;28;20647;-66
2020/12/29 00:52:40;;;;;;;0.60;0.60;;;;;;;2.26;86.23;93386.53;5111374;28;20290;-65
2020/12/29 00:55:05;;;;;;;0.60;0.60;;;;;;;2.26;86.07;93396.09;5110296;28;20754;-65
2020/12/29 00:57:31;;;;;;;0.63;0.63;;;;;;;2.36;86.30;93398.66;5111202;28;20555;-65
2020/12/29 00:59:56;;;;;;;1.13;0.60;;;;;;;2.37;86.29;93402.81;5109845;28;20271;-66
2020/12/29 01:02:22;;;;;;;0.67;0.67;;;;;;;2.49;85.47;93405.91;5117911;28;20235;-65
2020/12/29 01:04:48;;;;;;;0.60;0.60;;;;;;;2.56;85.26;93421.94;5126066;28;20175;-66
2020/12/29 01:07:13;;;;;;;0.60;0.60;;;;;;;2.65;85.38;93419.59;5118584;28;20176;-65
2020/12/29 01:09:39;;;;;;;0.70;0.70;;;;;;;2.69;84.91;93423.19;5123439;28;20250;-64
2020/12/29 01:12:04;;;;;;;0.80;0.77;;;;;;;2.71;85.39;93424.50;5122032;28;20178;-65
2020/12/29 01:14:30;;;;;;;0.60;0.60;;;;;;;2.70;86.22;93409.25;5119544;28;20176;-65
2020/12/29 01:16:56;;;;;;;0.60;0.60;;;;;;;2.66;86.61;93415.97;5119190;28;20168;-65
2020/12/29 01:19:22;;;;;;;0.40;0.40;;;;;;;2.65;88.21;93411.84;5111775;28;20229;-66
2020/12/29 01:21:54;;;;;;;0.67;0.67;;;;;;;2.64;88.02;93425.78;5128280;28;20221;-66
2020/12/29 01:24:20;;;;;;;1.13;0.50;;;;;;;2.63;88.04;93419.84;5119729;28;20252;-65
2020/12/29 01:26:45;;;;;;;0.50;0.50;;;;;;;2.60;89.01;93420.38;5119668;28;20184;-65
2020/12/29 01:29:11;;;;;;;0.50;0.50;;;;;;;2.62;89.47;93418.28;5126044;28;20178;-66
2020/12/29 01:31:37;;;;;;;0.83;0.60;;;;;;;2.66;89.04;93432.25;5114685;28;20191;-66
2020/12/29 01:34:02;;;;;;;0.77;0.50;;;;;;;2.64;89.16;93429.16;5124741;28;20199;-66
2020/12/29 01:36:28;;;;;;;0.60;0.60;;;;;;;2.72;89.89;93431.22;5120197;28;20187;-66
2020/12/29 01:38:54;;;;;;;0.50;0.50;;;;;;;2.71;89.33;93434.06;5123530;28;20621;-66
2020/12/29 01:41:21;;;;;;;0.50;0.50;;;;;;;2.67;89.52;93431.22;5116144;28;20168;-66
2020/12/29 01:43:48;;;;;;;0.50;0.50;;;;;;;2.68;89.05;93427.59;5102744;27;20266;-66
2020/12/29 01:46:14;;;;;;;0.53;0.53;;;;;;;2.71;89.61;93432.25;5127756;27;20177;-66
2020/12/29 01:48:40;;;;;;;0.60;0.60;;;;;;;2.72;89.42;93435.63;5128485;27;20678;-66
2020/12/29 01:51:07;;;;;;;0.70;0.50;;;;;;;2.74;88.86;93436.88;5120196;27;20188;-66
2020/12/29 01:53:32;;;;;;;1.93;0.50;;;;;;;2.73;89.30;93426.81;5132009;27;20302;-67
2020/12/29 01:55:58;;;;;;;0.60;0.60;;;;;;;2.73;88.92;93429.41;5124308;27;20289;-66
2020/12/29 01:58:23;;;;;;;2.97;0.60;;;;;;;2.75;88.87;93438.44;5129485;27;20183;-66
2020/12/29 02:00:53;;;;;;;0.60;0.60;;;;;;;2.79;87.96;93418.78;5125232;27;20211;-66
2020/12/29 02:03:18;;;;;;;0.60;0.60;;;;;;;2.83;88.10;93422.41;5115540;27;20624;-67
2020/12/29 02:05:47;;;;;;;0.50;0.50;;;;;;;2.78;88.19;93426.81;5122843;27;20159;-64
2020/12/29 02:08:13;;;;;;;0.50;0.50;;;;;;;2.87;87.17;93420.84;5122358;27;20258;-66
2020/12/29 02:10:41;;;;;;;0.50;0.50;;;;;;;2.83;86.99;93440.53;5130438;27;20724;-65
2020/12/29 02:13:07;;;;;;;0.60;0.60;;;;;;;2.87;87.17;93431.19;5129454;27;20750;-66
2020/12/29 02:15:33;;;;;;;0.60;0.60;;;;;;;2.93;86.31;93432.75;5123705;27;20192;-65
2020/12/29 02:17:58;;;;;;;0.50;0.50;;;;;;;2.96;85.53;93420.31;5123012;27;20183;-64
2020/12/29 02:20:24;;;;;;;0.50;0.50;;;;;;;2.96;85.97;93421.06;5128689;27;20167;-65
2020/12/29 02:22:50;;;;;;;0.77;0.50;;;;;;;3.00;86.08;93435.06;5117773;27;20196;-66
2020/12/29 02:25:16;;;;;;;1.13;0.60;;;;;;;2.98;85.43;93428.59;5130151;27;20190;-65
2020/12/29 02:27:46;;;;;;;0.60;0.60;;;;;;;3.06;84.51;93434.00;5123086;27;20167;-65
2020/12/29 02:30:15;;;;;;;0.50;0.50;;;;;;;3.07;84.18;93442.53;5121931;27;20171;-66
2020/12/29 02:32:40;;;;;;;0.43;0.43;;;;;;;3.15;84.56;93439.41;5130197;27;20199;-65
2020/12/29 02:35:08;;;;;;;0.40;0.40;;;;;;;3.07;84.57;93448.47;5116892;27;20699;-65
2020/12/29 02:37:33;;;;;;;0.83;0.50;;;;;;;3.18;84.48;93468.13;5128068;27;20172;-66
2020/12/29 02:40:00;;;;;;;0.43;0.43;;;;;;;3.19;83.45;93464.50;5122071;27;20529;-65
2020/12/29 02:42:26;;;;;;;0.50;0.50;;;;;;;3.16;83.63;93462.44;5118219;27;20563;-66
2020/12/29 02:44:53;;;;;;;0.40;0.40;;;;;;;3.23;83.60;93469.94;5128532;27;20254;-66
2020/12/29 02:47:18;;;;;;;0.30;0.30;;;;;;;3.25;83.29;93467.84;5129570;27;20171;-65
2020/12/29 02:49:44;;;;;;;0.40;0.40;;;;;;;3.27;83.42;93470.97;5129580;27;20167;-65
2020/12/29 02:52:09;;;;;;;0.87;0.40;;;;;;;3.25;83.41;93468.63;5124594;27;20206;-65
2020/12/29 02:54:35;;;;;;;0.60;0.60;;;;;;;3.21;83.45;93477.97;5117091;27;20186;-65
2020/12/29 02:57:01;;;;;;;0.33;0.33;;;;;;;3.27;83.11;93479.50;5125666;27;20180;-66
2020/12/29 02:59:26;;;;;;;0.40;0.40;;;;;;;3.27;83.61;93491.66;5123545;27;20617;-66
2020/12/29 03:01:53;;;;;;;0.50;0.50;;;;;;;3.25;84.84;93497.09;5120082;27;20230;-70
2020/12/29 03:04:20;;;;;;;0.40;0.40;;;;;;;3.26;85.60;93490.88;5129499;27;20656;-67
2020/12/29 03:06:46;;;;;;;1.80;0.50;;;;;;;3.23;86.18;93493.22;5122186;27;20168;-66
2020/12/29 03:09:12;;;;;;;0.50;0.50;;;;;;;3.19;87.39;93497.34;5113685;28;20176;-66
2020/12/29 03:11:38;;;;;;;0.40;0.40;;;;;;;3.21;87.73;93506.41;5117922;27;20613;-66
2020/12/29 03:14:06;;;;;;;0.40;0.40;;;;;;;3.17;87.47;93508.00;5130237;27;20195;-66
2020/12/29 03:16:33;;;;;;;0.50;0.50;;;;;;;3.20;88.15;93512.63;5115199;27;20194;-66
2020/12/29 03:19:01;;;;;;;0.50;0.50;;;;;;;3.12;89.09;93515.72;5127416;27;20187;-66
2020/12/29 03:21:27;;;;;;;0.40;0.40;;;;;;;3.04;89.87;93513.69;5130684;27;20235;-66
2020/12/29 03:23:52;;;;;;;0.40;0.40;;;;;;;2.95;90.61;93511.88;5114813;27;20199;-67
2020/12/29 03:26:18;;;;;;;0.60;0.60;;;;;;;2.97;90.92;93528.69;5113848;28;20168;-66
2020/12/29 03:28:44;;;;;;;0.43;0.43;;;;;;;2.99;91.89;93512.91;5117763;27;20171;-66
2020/12/29 03:31:12;;;;;;;0.40;0.40;;;;;;;2.89;92.44;93517.06;5124665;27;20638;-67
2020/12/29 03:33:37;;;;;;;0.50;0.50;;;;;;;2.82;93.01;93526.09;5127174;27;20207;-66
2020/12/29 03:36:04;;;;;;;1.23;0.60;;;;;;;2.80;93.13;93525.56;5127461;27;20633;-65
2020/12/29 03:38:29;;;;;;;0.40;0.40;;;;;;;2.70;93.42;93531.53;5128311;27;20163;-66
2020/12/29 03:40:55;;;;;;;0.50;0.50;;;;;;;2.74;93.21;93537.72;5115755;27;20194;-67
2020/12/29 03:43:21;;;;;;;0.40;0.40;;;;;;;2.79;93.86;93549.88;5124010;27;20212;-66
2020/12/29 03:45:49;;;;;;;0.73;0.50;;;;;;;2.75;93.63;93546.25;5121340;27;20164;-66
2020/12/29 03:48:17;;;;;;;0.50;0.50;;;;;;;2.75;93.36;93552.22;5118955;27;20179;-67
2020/12/29 03:50:43;;;;;;;0.53;0.50;;;;;;;2.64;93.63;93547.28;5123773;27;20175;-66
2020/12/29 03:53:09;;;;;;;0.60;0.60;;;;;;;2.71;93.25;93550.41;5120917;27;20195;-66
2020/12/29 03:55:36;;;;;;;0.50;0.50;;;;;;;2.72;93.84;93555.31;5122549;27;20195;-66
2020/12/29 03:58:04;;;;;;;0.77;0.50;;;;;;;2.65;93.00;93561.78;5123207;27;20528;-66
2020/12/29 04:00:29;;;;;;;0.50;0.50;;;;;;;2.67;92.86;93576.00;5124234;27;20175;-66
2020/12/29 04:02:55;;;;;;;0.60;0.60;;;;;;;2.66;93.25;93571.88;5141553;27;20234;-67
2020/12/29 04:05:21;;;;;;;0.50;0.50;;;;;;;2.68;93.27;93581.94;5146048;27;20223;-66
2020/12/29 04:07:48;;;;;;;0.60;0.60;;;;;;;2.66;92.73;93571.88;5142125;27;20174;-66
2020/12/29 04:10:15;;;;;;;0.50;0.50;;;;;;;2.64;93.27;93568.75;5139744;27;20178;-66
2020/12/29 04:12:40;;;;;;;0.50;0.50;;;;;;;2.68;93.23;93563.81;5146866;27;20297;-66
2020/12/29 04:15:07;;;;;;;0.67;0.60;;;;;;;2.76;93.28;93571.88;5136732;27;20849;-66
2020/12/29 04:17:40;;;;;;;0.60;0.60;;;;;;;2.77;93.59;93577.81;5142827;27;20190;-66
2020/12/29 04:20:08;;;;;;;0.97;0.40;;;;;;;2.75;92.91;93582.47;5148218;27;20195;-66
2020/12/29 04:22:35;;;;;;;1.13;0.57;;;;;;;2.77;93.74;93588.16;5142150;27;20227;-66
2020/12/29 04:25:04;;;;;;;0.40;0.40;;;;;;;2.84;93.12;93591.28;5142084;27;20202;-67
2020/12/29 04:27:29;;;;;;;0.40;0.40;;;;;;;2.76;93.60;93589.19;5144167;27;20355;-66
2020/12/29 04:29:57;;;;;;;0.50;0.50;;;;;;;2.81;92.83;93581.44;5148007;27;20257;-67
2020/12/29 04:32:23;;;;;;;0.43;0.43;;;;;;;2.73;93.48;93587.13;5144245;27;20560;-66
2020/12/29 04:34:48;;;;;;;0.50;0.50;;;;;;;2.70;92.91;93579.88;5133501;27;20164;-66
2020/12/29 04:37:14;;;;;;;1.10;0.50;;;;;;;2.82;93.03;93585.59;5140585;27;20269;-67
2020/12/29 04:39:40;;;;;;;1.87;0.60;;;;;;;2.80;92.61;93592.81;5135272;27;20171;-66
2020/12/29 04:42:13;;;;;;;0.47;0.47;;;;;;;2.78;91.98;93597.47;5136752;27;20190;-67
2020/12/29 04:44:40;;;;;;;0.60;0.57;;;;;;;2.78;92.03;93594.88;5149031;27;20183;-66
2020/12/29 04:47:09;;;;;;;1.77;0.50;;;;;;;2.69;92.57;93602.34;5139234;27;20166;-66
2020/12/29 04:49:36;;;;;;;0.50;0.50;;;;;;;2.70;92.10;93616.84;5141348;27;20649;-66
2020/12/29 04:52:04;;;;;;;0.63;0.57;;;;;;;2.73;90.63;93623.31;5147041;27;20268;-66
2020/12/29 04:54:33;;;;;;;0.97;0.60;;;;;;;2.70;92.56;93621.25;5136199;27;20183;-66
2020/12/29 04:57:00;;;;;;;0.40;0.40;;;;;;;2.78;91.98;93628.50;5132299;27;20210;-66
2020/12/29 04:59:28;;;;;;;0.50;0.50;;;;;;;2.69;92.64;93628.22;5133250;27;20175;-66
2020/12/29 05:01:53;;;;;;;0.57;0.50;;;;;;;2.71;93.51;93633.91;5114420;27;20277;-67
2020/12/29 05:04:20;;;;;;;0.50;0.50;;;;;;;2.68;94.02;93628.47;5091847;28;20713;-66
2020/12/29 05:06:46;;;;;;;0.50;0.50;;;;;;;2.71;93.17;93625.38;5089034;28;20165;-66
2020/12/29 05:09:11;;;;;;;0.57;0.57;;;;;;;2.76;93.56;93621.00;5098130;28;20194;-66
2020/12/29 05:11:37;;;;;;;0.50;0.50;;;;;;;2.69;93.69;93628.22;5103665;28;20580;-67
2020/12/29 05:14:04;;;;;;;1.13;0.60;;;;;;;2.72;93.43;93634.69;5108371;28;20203;-66
2020/12/29 05:16:34;;;;;;;1.43;0.90;;;;;;;2.63;94.21;93634.41;5096983;28;20196;-66
2020/12/29 05:19:06;;;;;;;0.50;0.50;;;;;;;2.62;94.06;93632.84;5109207;28;20616;-66
2020/12/29 05:21:33;;;;;;;0.70;0.50;;;;;;;2.66;93.42;93641.66;5103148;28;20181;-66
2020/12/29 05:24:07;;;;;;;0.50;0.50;;;;;;;2.57;94.73;93650.16;5089669;28;20707;-67
2020/12/29 05:26:35;;;;;;;0.60;0.60;;;;;;;2.51;94.53;93657.09;5098193;28;20164;-66
2020/12/29 05:29:03;;;;;;;2.67;0.70;;;;;;;2.59;94.19;93648.09;5107906;28;20514;-66
2020/12/29 05:31:30;;;;;;;0.70;0.70;;;;;;;2.53;93.90;93651.69;5103991;28;20218;-66
2020/12/29 05:34:00;;;;;;;0.60;0.60;;;;;;;2.50;94.03;93648.59;5101979;28;20204;-66
2020/12/29 05:36:27;;;;;;;0.60;0.60;;;;;;;2.53;93.71;93657.63;5111455;28;20200;-66
2020/12/29 05:39:03;;;;;;;1.07;0.53;;;;;;;2.54;93.55;93655.84;5111234;28;20210;-66
2020/12/29 05:41:29;;;;;;;0.67;0.60;;;;;;;2.52;93.80;93663.84;5114482;28;20186;-66
2020/12/29 05:44:03;;;;;;;0.50;0.50;;;;;;;2.51;94.12;93673.41;5114895;28;20212;-66
2020/12/29 05:46:29;;;;;;;0.60;0.60;;;;;;;2.48;94.21;93680.88;5098519;28;20169;-66
2020/12/29 05:48:56;;;;;;;0.70;0.70;;;;;;;2.49;94.77;93687.63;5103890;28;20206;-66
2020/12/29 05:51:23;;;;;;;0.53;0.53;;;;;;;2.43;94.74;93694.56;5105888;28;20267;-66
2020/12/29 05:53:50;;;;;;;0.60;0.60;;;;;;;2.37;95.69;93700.75;5106883;28;20200;-66
2020/12/29 05:56:15;;;;;;;0.50;0.50;;;;;;;2.39;95.46;93690.94;5112930;28;20298;-66
2020/12/29 05:58:42;;;;;;;0.77;0.60;;;;;;;2.32;95.56;93702.53;5078977;28;20259;-66
2020/12/29 06:01:12;;;;;;;0.83;0.60;;;;;;;2.33;95.76;93717.00;5110158;28;20281;-66
2020/12/29 06:03:40;;;;;;;0.60;0.60;;;;;;;2.26;95.58;93706.88;5129886;27;20226;-66
2020/12/29 06:06:07;;;;;;;0.60;0.60;;;;;;;2.28;96.44;93720.34;5114707;27;20164;-66
2020/12/29 06:08:36;;;;;;;0.63;0.60;;;;;;;2.22;96.73;93723.16;5114032;27;20172;-66
2020/12/29 06:11:12;;;;;;;0.90;0.60;;;;;;;2.21;96.53;93721.59;5113003;27;20176;-67
2020/12/29 06:13:38;;;;;;;3.33;0.83;;;;;;;2.23;96.68;93725.47;5115738;27;20211;-66
2020/12/29 06:16:04;;;;;;;0.70;0.70;;;;;;;2.22;96.76;93734.25;5113806;27;20257;-66
2020/12/29 06:18:35;;;;;;;1.77;0.80;;;;;;;2.24;95.63;93737.34;5115623;27;20176;-66
2020/12/29 06:21:07;;;;;;;0.60;0.60;;;;;;;2.16;96.51;93742.22;5113148;28;20229;-67
2020/12/29 06:23:43;;;;;;;2.37;0.87;;;;;;;2.16;96.59;93744.81;5127785;27;20207;-66
2020/12/29 06:26:09;;;;;;;1.17;0.63;;;;;;;2.14;97.11;93745.03;5116423;27;20215;-67
2020/12/29 06:28:47;;;;;;;1.13;0.60;;;;;;;2.12;97.26;93761.84;5128694;27;20697;-67
2020/12/29 06:31:27;;;;;;;0.83;0.70;;;;;;;2.13;97.53;93760.78;5114744;27;20186;-67
2020/12/29 06:33:54;;;;;;;0.77;0.70;;;;;;;2.15;97.27;93769.06;5118341;27;20252;-67
2020/12/29 06:36:20;;;;;;;1.03;0.80;;;;;;;2.08;97.32;93777.03;5125758;27;20192;-66
2020/12/29 06:38:48;;;;;;;0.70;0.70;;;;;;;2.15;96.85;93793.09;5123200;27;20258;-66
2020/12/29 06:41:18;;;;;;;1.70;0.90;;;;;;;2.14;97.40;93799.28;5126680;27;20199;-66
2020/12/29 06:43:44;;;;;;;0.97;0.60;;;;;;;2.15;97.86;93787.16;5124554;27;20259;-66
2020/12/29 06:46:14;;;;;;;0.77;0.60;;;;;;;2.17;97.77;93795.44;5127211;27;20595;-66
2020/12/29 06:48:41;;;;;;;1.10;0.73;;;;;;;2.11;97.54;93811.94;5116713;27;20550;-69
2020/12/29 06:51:14;;;;;;;1.30;0.60;;;;;;;2.13;97.64;93826.16;5094779;28;20278;-68
2020/12/29 06:53:41;;;;;;;1.43;0.80;;;;;;;2.19;97.06;93835.50;5122281;27;20203;-64
2020/12/29 06:56:17;;;;;;;0.70;0.70;;;;;;;2.20;96.87;93839.66;5128503;27;20199;-70
2020/12/29 06:58:43;;;;;;;0.80;0.80;;;;;;;3.92;100.00;93855.94;5104553;27;20236;-68
2020/12/29 07:01:24;;;;;;;0.60;0.60;;;;;;;3.66;92.70;93847.34;5106955;27;20240;-65
2020/12/29 07:04:06;;;;;;;0.97;0.70;;;;;;;3.10;92.23;93859.31;5092727;28;20220;-65
2020/12/29 07:06:34;;;;;;;0.70;0.70;;;;;;;2.90;92.23;93870.34;5091374;28;20175;-64
2020/12/29 07:09:02;;;;;;;0.60;0.60;;;;;;;2.78;92.69;93887.88;5092644;28;20245;-67
2020/12/29 07:11:28;;;;;;;0.60;0.60;;;;;;;2.71;93.49;93895.06;5092599;28;20173;-65
2020/12/29 07:13:53;;;;;;;1.40;0.80;;;;;;;2.69;93.89;93906.66;5092960;28;20223;-65
2020/12/29 07:16:23;;;;;;;1.03;0.60;;;;;;;2.68;94.03;93913.66;5092118;28;20200;-65
2020/12/29 07:18:49;;;;;;;0.57;0.57;;;;;;;2.71;93.91;93915.75;5092486;28;20183;-66
2020/12/29 07:21:28;;;;;;;0.70;0.70;;;;;;;2.72;94.44;93926.88;5091243;28;20177;-66
2020/12/29 07:23:55;;;;;;;1.10;0.67;;;;;;;2.71;94.72;93928.69;5089910;28;20208;-65
2020/12/29 07:26:23;;;;;;;1.80;1.07;;;;;;;2.69;94.97;93933.31;5090601;28;20180;-63
2020/12/29 07:28:54;;;;;;;1.43;0.70;;;;;;;2.73;93.73;93933.59;5092128;28;20169;-67
2020/12/29 07:31:21;;;;;;;1.90;0.70;;;;;;;2.57;94.97;93944.84;5091588;28;20857;-65
2020/12/29 07:33:53;;;;;;;1.57;0.83;;;;;;;2.63;95.23;93942.03;5092550;28;20219;-63
2020/12/29 07:36:20;;;;;;;1.63;0.80;;;;;;;2.68;94.80;93949.06;5091413;28;20197;-63
2020/12/29 07:38:50;;;;;;;0.73;0.70;;;;;;;2.64;94.92;93963.50;5092129;28;20252;-63
2020/12/29 07:41:18;;;;;;;2.60;0.70;;;;;;;2.67;95.70;93965.63;5080290;28;20218;-63
2020/12/29 07:43:44;;;;;;;1.27;0.63;;;;;;;2.72;94.76;93958.69;5092193;28;20196;-62
2020/12/29 07:46:10;;;;;;;1.97;0.60;;;;;;;2.75;93.96;93980.66;5091382;28;20635;-64
2020/12/29 07:48:36;;;;;;;1.03;0.90;;;;;;;2.79;93.66;93989.47;5092256;28;20203;-64
2020/12/29 07:51:03;;;;;;;2.33;0.80;;;;;;;2.82;93.92;93999.34;5091185;28;20555;-64
2020/12/29 07:53:29;;;;;;;2.20;1.20;;;;;;;2.79;93.48;94005.00;5092199;28;20295;-62
2020/12/29 07:55:56;;;;;;;1.70;0.93;;;;;;;2.83;93.39;94008.69;5092226;28;20576;-60
2020/12/29 07:58:21;;;;;;;0.70;0.70;;;;;;;2.82;93.39;94015.66;5090404;28;20267;-63
2020/12/29 08:00:47;;;;;;;1.03;0.77;;;;;;;2.83;93.97;94016.44;5089881;28;20651;-63
2020/12/29 08:03:13;;;;;;;1.83;0.60;;;;;;;2.86;94.09;94032.22;5091079;28;20574;-63
2020/12/29 08:05:39;;;;;;;1.20;0.80;;;;;;;2.95;93.23;94026.63;5092023;28;20168;-63
2020/12/29 08:08:09;;;;;;;0.80;0.80;;;;;;;2.96;93.08;94038.50;5091005;28;20176;-62
2020/12/29 08:10:37;;;;;;;1.30;0.80;;;;;;;2.98;92.96;94049.38;5091320;28;20183;-65
2020/12/29 08:13:05;;;;;;;0.93;0.80;;;;;;;3.06;92.90;94047.16;5091478;28;20196;-64
2020/12/29 08:15:32;;;;;;;3.17;0.90;;;;;;;3.02;92.02;94051.22;5092337;28;20192;-63
2020/12/29 08:18:02;;;;;;;0.90;0.70;;;;;;;3.05;93.09;94055.16;5092213;28;20184;-68
2020/12/29 08:20:28;;;;;;;0.60;0.60;;;;;;;3.04;92.27;94064.72;5091623;28;20176;-63
2020/12/29 08:22:54;;;;;;;0.80;0.80;;;;;;;3.17;92.29;94060.94;5091272;28;20207;-64
2020/12/29 08:25:19;;;;;;;1.10;1.10;;;;;;;3.20;91.48;94061.22;5090419;28;20824;-63
2020/12/29 08:27:45;;;;;;;1.27;0.97;;;;;;;3.26;91.15;94068.00;5091696;28;20181;-62
2020/12/29 08:30:11;;;;;;;1.13;0.90;;;;;;;3.32;90.50;94074.78;5090314;28;20208;-63
2020/12/29 08:32:38;;;;;;;1.30;0.73;;;;;;;3.46;90.72;94080.28;5090882;28;20200;-63
2020/12/29 08:35:05;;;;;;;3.07;0.90;;;;;;;3.48;90.56;94088.59;5090266;28;20194;-64
2020/12/29 08:37:34;;;;;;;4.40;1.00;;;;;;;3.47;91.19;94096.59;5091261;28;20259;-63
2020/12/29 08:40:11;;;;;;;1.53;0.70;;;;;;;3.50;91.07;94111.66;5091293;28;20173;-62
2020/12/29 08:42:40;;;;;;;0.63;0.63;;;;;;;3.59;90.22;94115.34;5091052;28;20211;-63
2020/12/29 08:45:07;;;;;;;2.57;1.00;;;;;;;3.64;90.98;94126.50;5090553;28;20588;-66
2020/12/29 08:47:33;;;;;;;0.70;0.70;;;;;;;3.68;90.05;94127.56;5090752;28;20172;-62
2020/12/29 08:50:27;;;;;;;0.83;0.60;;;;;;;3.64;90.28;94142.06;5091118;28;20725;-67
2020/12/29 08:53:02;;;;;;;0.87;0.73;;;;;;;3.56;91.21;94150.28;5081070;28;20234;-62
2020/12/29 08:55:30;;;;;;;1.73;0.73;;;;;;;3.65;90.73;94153.97;5094448;28;20204;-61
2020/12/29 08:57:57;;;;;;;1.73;0.70;;;;;;;3.66;90.00;94165.13;5094747;28;20576;-62
2020/12/29 09:00:23;;;;;;;1.63;0.80;;;;;;;3.73;90.59;94176.81;5093589;28;20211;-63
2020/12/29 09:02:49;;;;;;;0.93;0.73;;;;;;;3.72;90.52;94190.81;5092431;28;20322;-62
2020/12/29 09:05:23;;;;;;;0.70;0.70;;;;;;;3.49;92.64;94191.13;5093895;28;20597;-63
2020/12/29 09:07:49;;;;;;;1.80;0.97;;;;;;;3.40;94.46;94197.00;5094729;28;20171;-62
2020/12/29 09:10:16;;;;;;;0.80;0.80;;;;;;;3.38;93.31;94207.59;5093533;28;20545;-62
2020/12/29 09:12:42;;;;;;;0.70;0.70;;;;;;;3.21;94.19;94212.88;5094628;28;20200;-62
2020/12/29 09:15:12;;;;;;;1.07;0.70;;;;;;;2.99;95.71;94224.28;5093854;28;20187;-61
2020/12/29 09:17:43;;;;;;;1.67;1.00;;;;;;;2.96;95.18;94224.75;5087776;28;20169;-62
2020/12/29 09:20:22;;;;;;;0.80;0.70;;;;;;;2.82;96.95;94232.13;5093131;28;20172;-63
2020/12/29 09:23:11;;;;;;;0.83;0.70;;;;;;;2.85;96.25;94247.91;5091455;28;20204;-62
2020/12/29 09:25:42;;;;;;;1.73;0.80;;;;;;;2.69;96.18;94253.94;5093131;28;20192;-62
2020/12/29 09:28:07;;;;;;;0.57;0.53;;;;;;;2.58;96.55;94260.00;5093594;28;20203;-68
2020/12/29 09:30:33;;;;;;;1.93;0.80;;;;;;;2.26;98.55;94272.75;5094169;28;20205;-70
2020/12/29 09:32:58;;;;;;;1.70;0.70;;;;;;;2.33;99.23;94270.78;5094103;28;20224;-63
2020/12/29 09:35:27;;;;;;;1.33;0.97;;;;;;;2.25;99.70;94284.09;5092992;28;20196;-60
2020/12/29 09:37:58;;;;;;;2.40;1.10;;;;;;;2.35;99.94;94297.16;5094701;28;20264;-64
2020/12/29 09:40:24;;;;;;;0.70;0.70;;;;;;;2.40;99.45;94299.03;5092135;28;20201;-54
2020/12/29 09:42:50;;;;;;;0.70;0.70;;;;;;;2.43;100.00;94301.94;5093604;28;20200;-58
2020/12/29 09:45:20;;;;;;;1.37;0.70;;;;;;;2.37;100.00;94305.47;5092629;28;20594;-59
2020/12/29 09:47:46;;;;;;;1.07;0.70;;;;;;;2.55;100.00;94308.81;5086000;28;20541;-61
2020/12/29 09:50:12;;;;;;;0.80;0.80;;;;;;;2.70;100.00;94316.78;5092984;28;20183;-57
2020/12/29 09:52:37;;;;;;;1.10;0.77;;;;;;;2.78;99.56;94321.56;5093587;28;20273;-61
2020/12/29 09:55:04;;;;;;;0.83;0.80;;;;;;;2.86;99.25;94329.69;5093440;28;20654;-62
2020/12/29 09:57:30;;;;;;;0.70;0.70;;;;;;;2.93;98.23;94337.28;5093079;28;20181;-59
2020/12/29 09:59:55;;;;;;;1.53;0.93;;;;;;;2.88;99.97;94343.16;5092587;28;20267;-58
2020/12/29 10:02:22;;;;;;;0.90;0.80;;;;;;;2.92;98.90;94344.25;5114723;27;20306;-55
2020/12/29 10:04:47;;;;;;;1.03;0.90;;;;;;;2.96;98.54;94354.09;5121056;27;20187;-58
2020/12/29 10:07:13;;;;;;;1.23;1.00;;;;;;;3.10;98.23;94357.94;5120302;27;20163;-58
2020/12/29 10:09:38;;;;;;;2.47;0.93;;;;;;;3.16;98.50;94357.75;5117445;27;20163;-59
2020/12/29 10:12:06;;;;;;;0.80;0.80;;;;;;;3.27;98.30;94366.41;5121816;27;20657;-65
2020/12/29 10:14:31;;;;;;;0.77;0.70;;;;;;;3.43;98.49;94367.38;5124077;27;20279;-60
2020/12/29 10:16:57;;;;;;;1.77;0.80;;;;;;;3.48;95.67;94372.63;5128322;27;20200;-63
2020/12/29 10:19:22;;;;;;;0.80;0.80;;;;;;;3.44;96.00;94380.09;5122133;27;20183;-58
2020/12/29 10:21:52;;;;;;;0.97;0.73;;;;;;;3.42;95.45;94383.94;5129319;27;20553;-64
2020/12/29 10:24:17;;;;;;;0.53;0.53;;;;;;;3.41;94.32;94383.16;5117261;27;20184;-63
2020/12/29 10:26:43;;;;;;;0.73;0.60;;;;;;;3.37;93.54;94387.25;5123396;27;20167;-66
2020/12/29 10:29:08;;;;;;;0.90;0.60;;;;;;;3.30;94.60;94389.22;5120758;27;20255;-63
2020/12/29 10:31:34;;;;;;;0.60;0.60;;;;;;;3.28;95.00;94393.88;5115337;27;20192;-63
2020/12/29 10:34:02;;;;;;;0.70;0.70;;;;;;;3.41;93.50;94401.28;5120096;27;20206;-64
2020/12/29 10:36:35;;;;;;;0.50;0.50;;;;;;;3.51;94.31;94405.81;5124593;27;20217;-63
2020/12/29 10:39:02;;;;;;;3.63;0.80;;;;;;;3.41;93.08;94409.03;5118939;27;20254;-63
2020/12/29 10:41:32;;;;;;;0.90;0.90;;;;;;;3.53;93.42;94414.88;5111695;27;20167;-63
2020/12/29 10:43:58;;;;;;;0.90;0.70;;;;;;;3.60;94.07;94419.88;5112738;28;20246;-63
2020/12/29 10:46:24;;;;;;;0.77;0.67;;;;;;;3.53;94.06;94422.66;5121180;27;20822;-63
2020/12/29 10:48:50;;;;;;;0.60;0.60;;;;;;;3.57;92.33;94420.34;5122812;27;20207;-63
2020/12/29 10:51:18;;;;;;;0.50;0.50;;;;;;;3.73;93.83;94432.50;5122037;27;20176;-63
2020/12/29 10:53:43;;;;;;;0.53;0.53;;;;;;;3.70;93.04;94433.75;5125014;27;20259;-66
2020/12/29 10:56:09;;;;;;;1.03;0.70;;;;;;;3.79;92.43;94436.69;5133057;27;20191;-63
2020/12/29 10:58:37;;;;;;;0.50;0.50;;;;;;;3.83;91.30;94439.59;5117035;27;20187;-63
2020/12/29 11:01:13;;;;;;;0.60;0.60;;;;;;;3.71;91.90;94445.69;5125847;27;20607;-63
2020/12/29 11:03:39;;;;;;;1.00;1.00;;;;;;;3.70;91.48;94451.88;5113974;27;20214;-65
2020/12/29 11:06:19;;;;;;;0.60;0.60;;;;;;;3.84;91.27;94462.66;5121053;27;20164;-66
2020/12/29 11:08:46;;;;;;;0.50;0.50;;;;;;;3.81;89.38;94468.31;5129260;27;20227;-64
2020/12/29 11:11:12;;;;;;;0.80;0.70;;;;;;;3.91;90.79;94465.84;5125767;27;20723;-65
2020/12/29 11:13:38;;;;;;;1.23;0.70;;;;;;;3.88;89.73;94463.75;5130069;27;20320;-65
2020/12/29 11:16:14;;;;;;;0.60;0.60;;;;;;;3.91;89.63;94462.47;5120041;27;20286;-66
2020/12/29 11:18:40;;;;;;;0.50;0.50;;;;;;;3.79;89.18;94467.75;5119387;27;20195;-65
2020/12/29 11:21:07;;;;;;;0.50;0.50;;;;;;;4.00;88.96;94466.22;5119379;27;20199;-65
2020/12/29 11:23:32;;;;;;;0.60;0.60;;;;;;;4.16;88.01;94479.09;5123968;27;20271;-65
2020/12/29 11:25:58;;;;;;;0.60;0.60;;;;;;;4.34;86.98;94490.94;5126287;27;20623;-63
2020/12/29 11:28:23;;;;;;;2.20;0.50;;;;;;;4.55;88.27;94481.56;5130146;27;20192;-65
2020/12/29 11:30:49;;;;;;;0.50;0.50;;;;;;;4.51;86.64;94477.88;5129977;27;20171;-65
2020/12/29 11:33:14;;;;;;;0.43;0.43;;;;;;;4.40;85.78;94491.78;5118383;27;20204;-65
2020/12/29 11:35:43;;;;;;;0.60;0.60;;;;;;;4.32;85.35;94487.81;5115816;27;20265;-65
2020/12/29 11:38:08;;;;;;;0.60;0.60;;;;;;;4.22;85.80;94482.53;5118638;27;20634;-65
2020/12/29 11:40:34;;;;;;;0.93;0.90;;;;;;;3.91;85.84;94491.75;5126200;27;20171;-64
2020/12/29 11:42:59;;;;;;;0.47;0.47;;;;;;;3.87;84.24;94490.66;5118644;27;20199;-67